Time;durP1;ratioP1;P1;durP2;ratioP2;P2;SDS_P1;SDS_P2;PMS_P1;PMS_P2;Temp;Humidity;BMP_temperature;BMP_pressure;BME280_temperature;BME280_humidity;BME280_pressure;Samples;Min_cycle;Max_cycle;Signal;HPM_P1;HPM_P2
2023/11/17 00:01:09;;;;;;;1.17;0.40;;;;;;;0.99;72.57;102016.50;5006474;28;20065;-78
2023/11/17 00:03:37;;;;;;;0.85;0.40;;;;;;;0.99;72.70;102019.06;5012440;28;20085;-78
2023/11/17 00:06:04;;;;;;;3.83;0.40;;;;;;;0.98;72.13;102018.19;5008711;28;20406;-77
2023/11/17 00:08:32;;;;;;;1.52;0.30;;;;;;;0.94;73.03;102013.75;5012360;28;20076;-77
2023/11/17 00:10:59;;;;;;;0.70;0.40;;;;;;;1.00;72.96;102020.84;5013642;28;20042;-77
2023/11/17 00:13:25;;;;;;;1.08;0.50;;;;;;;1.00;73.06;102014.00;5004031;28;20048;-77
2023/11/17 00:15:53;;;;;;;1.13;0.43;;;;;;;1.02;72.66;102025.19;5005700;28;20050;-77
2023/11/17 00:18:21;;;;;;;2.63;0.50;;;;;;;1.04;72.25;102022.72;4999727;28;20046;-77
2023/11/17 00:20:49;;;;;;;1.55;0.30;;;;;;;1.03;73.09;102020.97;5009956;28;20065;-77
2023/11/17 00:23:16;;;;;;;0.75;0.40;;;;;;;1.03;72.98;102016.69;5009114;28;20046;-71
2023/11/17 00:25:43;;;;;;;1.38;0.40;;;;;;;1.05;73.03;102027.03;5007999;28;20045;-71
2023/11/17 00:28:10;;;;;;;2.33;0.45;;;;;;;1.04;72.73;102023.56;5006993;28;20042;-71
2023/11/17 00:30:37;;;;;;;0.93;0.32;;;;;;;1.04;72.75;102010.72;5007427;28;20069;-72
2023/11/17 00:33:04;;;;;;;1.17;0.50;;;;;;;1.05;72.92;102014.16;5005097;28;20050;-72
2023/11/17 00:35:31;;;;;;;0.90;0.50;;;;;;;1.03;73.12;102021.84;5007465;28;21589;-72
2023/11/17 00:37:59;;;;;;;1.25;0.50;;;;;;;1.06;73.07;102029.69;5005775;28;20046;-72
2023/11/17 00:40:26;;;;;;;1.15;0.50;;;;;;;1.07;72.73;102027.97;5006642;28;20050;-71
2023/11/17 00:42:52;;;;;;;0.93;0.30;;;;;;;1.08;72.75;102019.44;5007339;28;20042;-71
2023/11/17 00:45:20;;;;;;;2.28;0.45;;;;;;;1.08;72.97;102025.47;5007815;28;20057;-72
2023/11/17 00:47:47;;;;;;;1.08;0.45;;;;;;;1.06;73.20;102021.09;5007371;28;20048;-72
2023/11/17 00:50:15;;;;;;;1.92;0.40;;;;;;;1.10;72.58;102023.81;5006549;28;20066;-72
2023/11/17 00:52:43;;;;;;;5.47;0.60;;;;;;;1.10;73.36;102021.25;5007610;28;20152;-72
2023/11/17 00:55:13;;;;;;;1.20;0.52;;;;;;;1.10;73.27;102016.09;5007817;28;20045;-71
2023/11/17 00:57:42;;;;;;;5.07;1.70;;;;;;;1.12;73.58;102024.78;5007341;28;20542;-72
2023/11/17 01:00:11;;;;;;;1.95;1.02;;;;;;;1.12;73.11;102022.19;5005772;28;20732;-72
2023/11/17 01:02:38;;;;;;;2.75;0.88;;;;;;;1.13;72.69;102023.06;5004145;28;20411;-72
2023/11/17 01:05:06;;;;;;;1.33;0.55;;;;;;;1.14;73.35;102022.28;5007206;28;20041;-73
2023/11/17 01:07:34;;;;;;;1.33;0.40;;;;;;;1.16;73.27;102017.16;5004252;28;20050;-72
2023/11/17 01:10:00;;;;;;;1.88;0.80;;;;;;;1.18;72.99;102021.56;5007390;28;20076;-71
2023/11/17 01:12:29;;;;;;;0.98;0.40;;;;;;;1.19;72.64;102019.84;5009569;28;20495;-71
2023/11/17 01:14:56;;;;;;;1.73;0.70;;;;;;;1.21;72.76;102015.66;5011858;28;20617;-72
2023/11/17 01:17:22;;;;;;;1.85;0.50;;;;;;;1.22;73.25;102019.97;5012507;28;20051;-72
2023/11/17 01:19:50;;;;;;;1.25;0.45;;;;;;;1.22;73.33;102015.69;5011789;28;20056;-72
2023/11/17 01:22:18;;;;;;;2.53;0.40;;;;;;;1.23;72.88;102011.47;5009550;28;20088;-74
2023/11/17 01:24:45;;;;;;;1.38;0.57;;;;;;;1.21;73.20;102005.38;5011189;28;20042;-74
2023/11/17 01:27:12;;;;;;;1.27;0.50;;;;;;;1.24;72.95;102011.50;5009291;28;20053;-73
2023/11/17 01:29:40;;;;;;;2.50;0.50;;;;;;;1.26;73.36;102017.59;5011759;28;20054;-74
2023/11/17 01:32:07;;;;;;;1.80;0.50;;;;;;;1.28;73.52;102007.34;5010100;28;20132;-73
2023/11/17 01:34:34;;;;;;;1.13;0.47;;;;;;;1.27;73.61;102013.31;5011972;28;20056;-73
2023/11/17 01:37:01;;;;;;;2.00;0.55;;;;;;;1.28;73.38;102007.34;5010752;28;20054;-73
2023/11/17 01:39:29;;;;;;;1.60;0.40;;;;;;;1.27;73.61;102003.91;5009056;28;20068;-73
2023/11/17 01:41:56;;;;;;;2.92;0.30;;;;;;;1.28;73.49;101999.63;5012538;28;20181;-74
2023/11/17 01:44:24;;;;;;;2.08;0.77;;;;;;;1.29;73.63;101998.81;5011082;28;20057;-73
2023/11/17 01:46:52;;;;;;;1.55;0.32;;;;;;;1.28;73.86;101997.06;5012165;28;20559;-74
2023/11/17 01:49:18;;;;;;;1.10;0.40;;;;;;;1.27;73.11;101996.19;5007477;28;20038;-73
2023/11/17 01:51:46;;;;;;;3.47;0.60;;;;;;;1.28;73.24;102004.78;5005576;28;20052;-73
2023/11/17 01:54:13;;;;;;;1.05;0.30;;;;;;;1.30;73.35;102003.16;5011027;28;20410;-73
2023/11/17 01:56:41;;;;;;;1.20;0.57;;;;;;;1.26;73.85;101996.13;5012100;28;20105;-74
2023/11/17 01:59:08;;;;;;;1.42;0.43;;;;;;;1.28;73.59;101995.38;5008249;28;20054;-72
2023/11/17 02:01:35;;;;;;;0.95;0.40;;;;;;;1.31;73.20;102002.34;5010507;28;20068;-73
2023/11/17 02:04:04;;;;;;;2.35;0.45;;;;;;;1.30;73.67;101998.88;5005948;28;20050;-73
2023/11/17 02:06:43;;;;;;;1.58;0.40;;;;;;;1.28;73.54;101995.38;5008354;28;20152;-74
2023/11/17 02:09:21;;;;;;;0.85;0.30;;;;;;;1.30;73.76;102001.44;5010743;28;20052;-73
2023/11/17 02:11:58;;;;;;;0.70;0.25;;;;;;;1.31;73.40;102007.50;5009024;28;20038;-73
2023/11/17 02:14:31;;;;;;;1.30;0.40;;;;;;;1.32;73.99;102006.66;5007304;28;20054;-73
2023/11/17 02:17:03;;;;;;;1.23;0.40;;;;;;;1.32;73.98;102004.09;5007353;28;20042;-73
2023/11/17 02:19:38;;;;;;;1.05;0.40;;;;;;;1.34;73.95;102010.19;5006951;28;20053;-74
2023/11/17 02:22:09;;;;;;;1.40;0.32;;;;;;;1.30;73.67;102009.16;5006230;28;20046;-73
2023/11/17 02:24:54;;;;;;;0.80;0.40;;;;;;;1.35;73.50;102010.22;5009339;28;20061;-74
2023/11/17 02:27:30;;;;;;;1.15;0.30;;;;;;;1.36;73.61;102008.53;5008432;28;20081;-73
2023/11/17 02:30:03;;;;;;;1.90;0.40;;;;;;;1.36;73.77;101998.22;5009904;28;20054;-73
2023/11/17 02:32:30;;;;;;;2.08;0.47;;;;;;;1.37;73.52;102005.16;5004832;28;20069;-73
2023/11/17 02:34:58;;;;;;;1.70;1.02;;;;;;;1.38;73.91;102009.47;5011109;28;20041;-73
2023/11/17 02:37:25;;;;;;;0.55;0.30;;;;;;;1.38;73.87;102004.31;5009066;28;20054;-73
2023/11/17 02:39:54;;;;;;;0.50;0.30;;;;;;;1.40;73.81;102006.97;5007206;28;20042;-73
2023/11/17 02:42:24;;;;;;;1.58;0.50;;;;;;;1.41;74.35;102003.56;5011591;28;20499;-76
2023/11/17 02:44:51;;;;;;;1.35;0.40;;;;;;;1.34;74.08;101997.31;5008274;28;20094;-76
2023/11/17 02:47:27;;;;;;;0.70;0.30;;;;;;;1.42;74.17;102006.19;5009612;28;20049;-76
2023/11/17 02:50:00;;;;;;;2.95;0.30;;;;;;;1.38;74.31;101996.59;5009904;28;20050;-76
2023/11/17 02:52:42;;;;;;;1.95;0.30;;;;;;;1.45;74.36;102010.56;5011838;28;20129;-76
2023/11/17 02:55:11;;;;;;;1.85;0.40;;;;;;;1.44;74.82;102001.97;5010890;28;20124;-77
2023/11/17 02:57:39;;;;;;;0.80;0.30;;;;;;;1.44;74.98;102007.13;5008639;28;20045;-76
2023/11/17 03:00:08;;;;;;;1.58;0.40;;;;;;;1.46;75.15;102007.22;5006933;28;20049;-76
2023/11/17 03:02:39;;;;;;;1.58;0.40;;;;;;;1.48;75.20;102005.53;5013794;28;20052;-76
2023/11/17 03:05:08;;;;;;;0.60;0.30;;;;;;;1.47;75.20;102008.94;5006478;28;20487;-76
2023/11/17 03:07:35;;;;;;;1.15;0.20;;;;;;;1.47;75.63;102009.81;5009058;28;20695;-76
2023/11/17 03:10:03;;;;;;;0.70;0.30;;;;;;;1.49;75.44;102012.47;5008166;28;20068;-77
2023/11/17 03:12:30;;;;;;;3.25;0.40;;;;;;;1.49;74.97;102020.19;5009025;28;20060;-76
2023/11/17 03:14:57;;;;;;;0.90;0.28;;;;;;;1.49;75.93;102018.50;5011099;28;20093;-76
2023/11/17 03:17:25;;;;;;;1.35;0.40;;;;;;;1.50;75.38;102015.09;5007518;28;20127;-76
2023/11/17 03:19:54;;;;;;;1.65;0.32;;;;;;;1.49;75.42;102026.22;5010880;28;20128;-77
2023/11/17 03:22:20;;;;;;;2.35;0.35;;;;;;;1.49;75.09;102023.66;5009575;28;20042;-77
2023/11/17 03:24:47;;;;;;;0.43;0.28;;;;;;;1.47;75.48;102017.53;5009620;28;20052;-76
2023/11/17 03:27:15;;;;;;;0.63;0.20;;;;;;;1.50;74.89;102025.38;5010333;28;20052;-76
2023/11/17 03:29:46;;;;;;;2.67;0.38;;;;;;;1.49;75.23;102026.22;5010492;28;20491;-76
2023/11/17 03:32:13;;;;;;;1.88;0.30;;;;;;;1.48;75.62;102021.91;5009354;28;20052;-77
2023/11/17 03:34:40;;;;;;;1.30;0.20;;;;;;;1.48;74.95;102023.56;5011551;28;20054;-76
2023/11/17 03:37:12;;;;;;;1.05;0.20;;;;;;;1.47;74.78;102024.41;5008975;28;20057;-78
2023/11/17 03:39:41;;;;;;;0.98;0.30;;;;;;;1.50;75.07;102034.81;5010316;28;20050;-75
2023/11/17 03:42:12;;;;;;;2.10;0.60;;;;;;;1.50;75.21;102034.81;5006139;28;20525;-74
2023/11/17 03:44:40;;;;;;;1.02;0.40;;;;;;;1.50;74.70;102040.84;5010121;28;20046;-74
2023/11/17 03:47:07;;;;;;;0.95;0.28;;;;;;;1.51;74.61;102047.75;5004626;28;20410;-73
2023/11/17 03:49:35;;;;;;;0.75;0.40;;;;;;;1.50;74.62;102046.00;5008608;28;20042;-73
2023/11/17 03:52:03;;;;;;;0.45;0.20;;;;;;;1.48;75.11;102046.75;5009815;28;20050;-77
2023/11/17 03:54:32;;;;;;;0.52;0.30;;;;;;;1.48;74.82;102045.06;5012086;28;20050;-78
2023/11/17 03:57:00;;;;;;;0.50;0.30;;;;;;;1.43;74.52;102046.59;5004472;28;20047;-77
2023/11/17 03:59:30;;;;;;;1.20;0.30;;;;;;;1.50;74.26;102048.56;5004424;28;20042;-77
2023/11/17 04:01:57;;;;;;;0.70;0.30;;;;;;;1.50;74.68;102050.25;5005301;28;20069;-77
2023/11/17 04:04:25;;;;;;;0.38;0.20;;;;;;;1.51;74.48;102057.19;5008736;28;20459;-77
2023/11/17 04:06:54;;;;;;;0.50;0.30;;;;;;;1.50;74.74;102051.13;5005052;28;20045;-77
2023/11/17 04:09:25;;;;;;;1.88;0.40;;;;;;;1.52;74.09;102046.06;5003375;28;20514;-77
2023/11/17 04:11:54;;;;;;;0.52;0.20;;;;;;;1.49;74.26;102046.81;5004433;28;20050;-77
2023/11/17 04:14:22;;;;;;;0.60;0.30;;;;;;;1.53;73.96;102048.69;5003185;28;20041;-77
2023/11/17 04:16:49;;;;;;;0.47;0.25;;;;;;;1.54;74.45;102052.16;5003620;28;20439;-77
2023/11/17 04:19:17;;;;;;;0.70;0.30;;;;;;;1.55;74.46;102047.06;5007061;28;20053;-77
2023/11/17 04:21:45;;;;;;;3.70;0.25;;;;;;;1.56;74.17;102053.06;5003976;28;20088;-77
2023/11/17 04:24:13;;;;;;;0.80;0.40;;;;;;;1.59;74.21;102055.75;5011677;28;20046;-77
2023/11/17 04:26:40;;;;;;;0.93;0.28;;;;;;;1.58;73.95;102049.75;5003333;28;20398;-77
2023/11/17 04:29:08;;;;;;;0.80;0.20;;;;;;;1.62;74.27;102049.84;5008853;28;20540;-77
2023/11/17 04:31:35;;;;;;;0.50;0.30;;;;;;;1.63;74.17;102051.63;5010314;28;20437;-77
2023/11/17 04:34:02;;;;;;;0.80;0.30;;;;;;;1.63;74.44;102044.78;5000956;28;20064;-77
2023/11/17 04:36:32;;;;;;;0.70;0.30;;;;;;;1.64;73.75;102048.22;5008048;28;20406;-78
2023/11/17 04:38:59;;;;;;;1.00;0.30;;;;;;;1.66;73.69;102051.75;5008419;28;20042;-77
2023/11/17 04:41:27;;;;;;;0.70;0.30;;;;;;;1.66;74.03;102050.03;5003258;28;20438;-77
2023/11/17 04:43:53;;;;;;;1.85;0.32;;;;;;;1.67;73.56;102048.34;5004422;28;20080;-77
2023/11/17 04:46:23;;;;;;;3.63;0.30;;;;;;;1.67;74.17;102045.78;5002774;28;20042;-77
2023/11/17 04:48:50;;;;;;;1.27;0.30;;;;;;;1.67;73.94;102053.50;5005543;28;20061;-77
2023/11/17 04:51:17;;;;;;;1.33;0.30;;;;;;;1.66;73.62;102057.78;5004165;28;20052;-77
2023/11/17 04:53:44;;;;;;;0.90;0.25;;;;;;;1.67;74.33;102054.38;4997805;28;20045;-73
2023/11/17 04:56:13;;;;;;;0.80;0.20;;;;;;;1.66;74.18;102050.03;4999369;28;20050;-74
2023/11/17 04:58:40;;;;;;;1.73;0.40;;;;;;;1.67;74.05;102056.94;5005031;28;20510;-75
2023/11/17 05:01:07;;;;;;;1.20;0.30;;;;;;;1.69;74.17;102060.47;4998695;28;20400;-74
2023/11/17 05:03:35;;;;;;;1.65;0.32;;;;;;;1.70;74.30;102062.22;4999863;28;20059;-74
2023/11/17 05:06:05;;;;;;;2.00;0.30;;;;;;;1.65;73.64;102052.56;4995115;28;20050;-73
2023/11/17 05:08:32;;;;;;;2.10;0.50;;;;;;;1.73;74.01;102058.88;4998885;28;20058;-73
2023/11/17 05:11:00;;;;;;;1.30;0.30;;;;;;;1.73;73.62;102058.88;4998236;28;20045;-72
2023/11/17 05:13:26;;;;;;;2.10;0.30;;;;;;;1.73;73.67;102064.91;4998894;28;20041;-73
2023/11/17 05:15:53;;;;;;;0.70;0.38;;;;;;;1.76;73.61;102069.28;4994959;28;20655;-73
2023/11/17 05:18:20;;;;;;;0.68;0.30;;;;;;;1.75;73.75;102073.56;4999186;28;20045;-75
2023/11/17 05:20:48;;;;;;;0.80;0.30;;;;;;;1.76;74.33;102069.28;5001655;28;20054;-73
2023/11/17 05:23:16;;;;;;;1.65;0.30;;;;;;;1.77;73.83;102073.66;5000744;28;20764;-73
2023/11/17 05:25:43;;;;;;;0.85;0.30;;;;;;;1.79;74.06;102069.41;5001079;28;20053;-75
2023/11/17 05:28:10;;;;;;;0.80;0.30;;;;;;;1.80;74.34;102068.63;5003550;28;20057;-74
2023/11/17 05:30:37;;;;;;;0.88;0.30;;;;;;;1.79;73.81;102072.00;4999921;28;20050;-74
2023/11/17 05:33:04;;;;;;;1.20;0.30;;;;;;;1.80;73.77;102072.06;5003516;28;20093;-73
2023/11/17 05:35:32;;;;;;;2.28;0.38;;;;;;;1.82;73.73;102068.66;5001268;28;20054;-74
2023/11/17 05:38:01;;;;;;;1.02;0.35;;;;;;;1.79;73.97;102064.25;5001301;28;20105;-74
2023/11/17 05:40:28;;;;;;;0.47;0.22;;;;;;;1.80;74.28;102066.03;4995396;28;20069;-74
2023/11/17 05:42:55;;;;;;;0.85;0.35;;;;;;;1.85;74.37;102068.75;4999643;28;20458;-74
2023/11/17 05:45:21;;;;;;;2.75;0.30;;;;;;;1.85;73.98;102071.34;5001523;28;20052;-74
2023/11/17 05:47:48;;;;;;;1.05;0.30;;;;;;;1.82;74.68;102068.66;5001232;28;20046;-74
2023/11/17 05:50:15;;;;;;;0.50;0.50;;;;;;;1.86;74.03;102075.69;4996270;28;20392;-74
2023/11/17 05:52:43;;;;;;;0.68;0.30;;;;;;;1.87;74.20;102072.28;5002185;28;20038;-75
2023/11/17 05:55:16;;;;;;;1.58;0.30;;;;;;;1.89;74.32;102076.69;5003781;28;20046;-74
2023/11/17 05:57:44;;;;;;;1.60;0.30;;;;;;;1.86;74.50;102070.53;5002230;28;20053;-74
2023/11/17 06:00:13;;;;;;;0.30;0.22;;;;;;;1.91;74.20;102079.34;5006923;28;20060;-73
2023/11/17 06:02:41;;;;;;;0.50;0.30;;;;;;;1.91;74.79;102082.78;5005508;28;20072;-74
2023/11/17 06:05:09;;;;;;;0.52;0.30;;;;;;;1.93;74.73;102085.41;5005221;28;20133;-74
2023/11/17 06:07:36;;;;;;;1.88;0.30;;;;;;;1.91;74.98;102084.47;5007970;28;20072;-74
2023/11/17 06:10:03;;;;;;;3.17;0.30;;;;;;;1.94;74.77;102080.31;5003112;28;20058;-74
2023/11/17 06:12:33;;;;;;;0.55;0.35;;;;;;;1.94;74.58;102085.47;5005012;28;20054;-74
2023/11/17 06:15:00;;;;;;;0.77;0.40;;;;;;;1.95;74.81;102089.78;5002504;28;20503;-74
2023/11/17 06:17:27;;;;;;;1.15;0.35;;;;;;;1.96;74.50;102089.00;5004029;28;20542;-74
2023/11/17 06:19:57;;;;;;;1.70;0.47;;;;;;;1.96;74.42;102094.16;5005230;28;20069;-75
2023/11/17 06:22:24;;;;;;;1.10;0.40;;;;;;;1.96;74.56;102085.50;5003050;28;20066;-74
2023/11/17 06:24:51;;;;;;;2.80;0.22;;;;;;;1.96;74.64;102083.84;5003256;28;20057;-74
2023/11/17 06:27:19;;;;;;;2.35;0.40;;;;;;;1.98;74.75;102089.03;5006053;28;20513;-74
2023/11/17 06:29:48;;;;;;;1.17;0.35;;;;;;;1.98;74.50;102087.34;5004359;28;20056;-74
2023/11/17 06:32:15;;;;;;;0.80;0.40;;;;;;;1.98;74.28;102083.88;4997663;28;20506;-74
2023/11/17 06:34:42;;;;;;;0.65;0.43;;;;;;;2.00;74.52;102090.84;5001589;28;20141;-73
2023/11/17 06:37:11;;;;;;;0.93;0.30;;;;;;;1.98;74.06;102086.47;5003370;28;20518;-73
2023/11/17 06:39:38;;;;;;;3.63;0.52;;;;;;;2.02;74.11;102094.38;5003459;28;20745;-73
2023/11/17 06:42:05;;;;;;;3.95;0.40;;;;;;;2.01;73.23;102092.59;5001735;28;20088;-71
2023/11/17 06:44:32;;;;;;;0.80;0.35;;;;;;;2.03;73.63;102096.13;5001016;28;20049;-73
2023/11/17 06:47:00;;;;;;;0.75;0.45;;;;;;;2.02;73.59;102099.53;5000081;28;20448;-74
2023/11/17 06:49:27;;;;;;;0.70;0.30;;;;;;;2.05;73.50;102109.06;4999551;28;20050;-75
2023/11/17 06:51:56;;;;;;;0.63;0.40;;;;;;;2.07;73.55;102103.97;4999826;28;20618;-75
2023/11/17 06:54:24;;;;;;;4.03;0.40;;;;;;;2.08;72.94;102103.13;4999858;28;20046;-75
2023/11/17 06:56:51;;;;;;;1.67;0.95;;;;;;;2.05;72.88;102103.00;5003091;28;20046;-74
2023/11/17 06:59:20;;;;;;;2.20;0.40;;;;;;;2.10;73.19;102109.22;5001944;28;20053;-74
2023/11/17 07:01:49;;;;;;;0.80;0.30;;;;;;;2.10;73.30;102107.53;5002294;28;20046;-75
2023/11/17 07:04:17;;;;;;;0.82;0.35;;;;;;;2.14;72.65;102119.72;5000953;28;20053;-75
2023/11/17 07:06:44;;;;;;;0.60;0.40;;;;;;;2.15;72.85;102115.44;5001925;28;20053;-74
2023/11/17 07:09:16;;;;;;;0.75;0.30;;;;;;;2.14;72.63;102129.16;5001801;28;20053;-74
2023/11/17 07:11:44;;;;;;;0.98;0.40;;;;;;;2.17;72.46;102130.16;5002856;28;20861;-78
2023/11/17 07:14:11;;;;;;;0.65;0.30;;;;;;;2.19;72.42;102130.19;4996633;28;20053;-78
2023/11/17 07:16:39;;;;;;;1.17;0.40;;;;;;;2.18;72.06;102131.91;5007898;28;20077;-78
2023/11/17 07:19:08;;;;;;;0.60;0.40;;;;;;;2.18;72.30;102128.44;5005867;28;20042;-79
2023/11/17 07:21:36;;;;;;;0.60;0.30;;;;;;;2.24;72.14;102136.41;5001348;28;20058;-83
2023/11/17 07:24:05;;;;;;;0.55;0.32;;;;;;;2.25;72.05;102138.19;4999385;28;20068;-82
2023/11/17 07:26:33;;;;;;;2.45;0.52;;;;;;;2.26;72.20;102132.19;4998803;28;20050;-82
2023/11/17 07:29:00;;;;;;;1.23;0.45;;;;;;;2.27;72.00;102128.78;5003761;28;20064;-76
2023/11/17 07:31:28;;;;;;;2.60;0.57;;;;;;;2.28;72.40;102143.44;5000363;28;20107;-79
2023/11/17 07:33:55;;;;;;;0.68;0.30;;;;;;;2.30;72.11;102144.38;4997517;28;20046;-73
2023/11/17 07:36:22;;;;;;;0.70;0.50;;;;;;;2.30;72.02;102136.63;5003126;28;20054;-73
2023/11/17 07:38:52;;;;;;;0.60;0.30;;;;;;;2.28;72.48;102138.28;5001927;28;20474;-72
2023/11/17 07:41:20;;;;;;;1.00;0.50;;;;;;;2.34;72.55;102143.69;4998266;28;20050;-74
2023/11/17 07:43:47;;;;;;;0.50;0.22;;;;;;;2.36;71.93;102146.28;4999980;28;20048;-74
2023/11/17 07:46:14;;;;;;;1.17;0.50;;;;;;;2.37;72.02;102151.53;5002263;28;20048;-72
2023/11/17 07:48:43;;;;;;;4.05;0.38;;;;;;;2.38;71.85;102148.09;4999430;28;20058;-72
2023/11/17 07:51:10;;;;;;;0.73;0.30;;;;;;;2.41;72.02;102150.78;4998382;28;20061;-76
2023/11/17 07:53:36;;;;;;;1.58;0.60;;;;;;;2.42;72.31;102156.81;5003850;28;20060;-72
2023/11/17 07:56:05;;;;;;;1.13;0.40;;;;;;;2.43;71.99;102154.31;5001630;28;20080;-72
2023/11/17 07:58:32;;;;;;;3.17;0.30;;;;;;;2.43;71.64;102159.47;5000724;28;20054;-72
2023/11/17 08:00:59;;;;;;;0.60;0.30;;;;;;;2.44;71.91;102156.06;5001113;28;20400;-73
2023/11/17 08:03:26;;;;;;;2.40;0.32;;;;;;;2.45;71.86;102160.44;5000591;28;20050;-73
2023/11/17 08:05:53;;;;;;;1.98;0.40;;;;;;;2.44;71.77;102156.06;5000816;28;20050;-73
2023/11/17 08:08:20;;;;;;;2.35;0.40;;;;;;;2.48;71.81;102165.69;5000623;28;20056;-72
2023/11/17 08:10:48;;;;;;;2.45;0.32;;;;;;;2.50;71.82;102167.44;5001244;28;20038;-72
2023/11/17 08:13:16;;;;;;;0.90;0.40;;;;;;;2.51;71.77;102166.63;5002442;28;20050;-72
2023/11/17 08:15:44;;;;;;;1.75;0.38;;;;;;;2.51;72.02;102162.34;5000981;28;20065;-73
2023/11/17 08:18:12;;;;;;;0.40;0.30;;;;;;;2.53;71.05;102172.72;5003399;28;20144;-74
2023/11/17 08:20:41;;;;;;;0.30;0.22;;;;;;;2.52;70.94;102168.38;4999230;28;20499;-72
2023/11/17 08:23:08;;;;;;;0.40;0.30;;;;;;;2.53;70.87;102172.72;5003676;28;20501;-73
2023/11/17 08:25:35;;;;;;;2.10;0.52;;;;;;;2.52;71.31;102170.97;5000203;28;20793;-73
2023/11/17 08:28:03;;;;;;;0.50;0.30;;;;;;;2.51;71.07;102171.78;5002804;28;20054;-72
2023/11/17 08:30:31;;;;;;;2.08;0.52;;;;;;;2.54;71.03;102174.47;5001595;28;21376;-72
2023/11/17 08:32:58;;;;;;;0.77;0.40;;;;;;;2.54;70.79;102182.22;5005323;28;20049;-78
2023/11/17 08:35:25;;;;;;;0.75;0.38;;;;;;;2.54;70.06;102182.22;5001813;28;20426;-79
2023/11/17 08:37:53;;;;;;;2.70;0.30;;;;;;;2.55;69.77;102183.97;5001233;28;20047;-77
2023/11/17 08:40:20;;;;;;;2.13;0.30;;;;;;;2.53;69.60;102185.59;4998806;28;20041;-75
2023/11/17 08:42:47;;;;;;;0.90;0.30;;;;;;;2.53;69.72;102191.63;5001203;28;20103;-77
2023/11/17 08:45:15;;;;;;;0.88;0.40;;;;;;;2.53;69.65;102188.19;5004949;28;20053;-77
2023/11/17 08:47:44;;;;;;;0.82;0.43;;;;;;;2.53;69.50;102186.47;5004594;28;20079;-78
2023/11/17 08:50:12;;;;;;;1.45;0.30;;;;;;;2.53;69.63;102186.47;5001068;28;20057;-79
2023/11/17 08:52:42;;;;;;;0.63;0.30;;;;;;;2.54;69.90;102189.97;5005015;28;20060;-77
2023/11/17 08:55:13;;;;;;;1.13;0.40;;;;;;;2.54;69.71;102193.41;4998479;28;20047;-76
2023/11/17 08:57:41;;;;;;;0.75;0.35;;;;;;;2.50;69.08;102185.50;4998401;28;20057;-76
2023/11/17 09:00:12;;;;;;;1.40;0.30;;;;;;;2.54;68.42;102193.41;5001870;28;20037;-76
2023/11/17 09:02:40;;;;;;;0.73;0.35;;;;;;;2.55;68.90;102189.13;5006311;28;20054;-76
2023/11/17 09:05:09;;;;;;;1.40;0.40;;;;;;;2.55;69.00;102183.97;5001475;28;20495;-76
2023/11/17 09:07:40;;;;;;;0.47;0.30;;;;;;;2.53;68.82;102189.06;5002136;28;20046;-75
2023/11/17 09:10:08;;;;;;;0.75;0.30;;;;;;;2.56;68.76;102196.03;5004078;28;20563;-76
2023/11/17 09:12:36;;;;;;;1.50;0.43;;;;;;;2.57;68.59;102188.38;4998170;28;20064;-75
2023/11/17 09:15:08;;;;;;;1.50;0.20;;;;;;;2.55;68.53;102189.13;5003752;28;20058;-77
2023/11/17 09:17:35;;;;;;;1.80;0.30;;;;;;;2.59;68.71;102196.16;5003662;28;20053;-77
2023/11/17 09:20:04;;;;;;;0.50;0.35;;;;;;;2.58;68.61;102195.28;5003120;28;20625;-77
2023/11/17 09:22:32;;;;;;;0.50;0.40;;;;;;;2.60;68.45;102200.50;5001312;28;20423;-80
2023/11/17 09:24:59;;;;;;;0.50;0.32;;;;;;;2.60;68.48;102197.91;5003041;28;20060;-80
2023/11/17 09:27:26;;;;;;;1.02;0.32;;;;;;;2.61;68.21;102207.41;5003425;28;20061;-79
2023/11/17 09:29:53;;;;;;;0.57;0.30;;;;;;;2.60;68.17;102208.25;5006341;28;20054;-80
2023/11/17 09:32:21;;;;;;;1.92;0.47;;;;;;;2.60;68.41;102208.25;5003316;28;20093;-74
2023/11/17 09:34:49;;;;;;;1.15;0.30;;;;;;;2.61;67.87;102210.00;5002314;28;20046;-73
2023/11/17 09:37:16;;;;;;;1.20;0.40;;;;;;;2.57;67.72;102197.81;5000381;28;20077;-74
2023/11/17 09:39:44;;;;;;;0.60;0.40;;;;;;;2.61;67.48;102212.56;5002675;28;20049;-75
2023/11/17 09:42:12;;;;;;;1.10;0.70;;;;;;;2.58;67.73;102203.00;5002384;28;20046;-77
2023/11/17 09:44:41;;;;;;;0.80;0.38;;;;;;;2.62;67.24;102211.75;5007415;28;20053;-76
2023/11/17 09:47:18;;;;;;;0.98;0.22;;;;;;;2.61;67.69;102212.56;5002850;28;20042;-75
2023/11/17 09:49:48;;;;;;;0.50;0.35;;;;;;;2.61;67.71;102208.28;5002650;28;20121;-75
2023/11/17 09:52:16;;;;;;;2.13;0.40;;;;;;;2.62;67.38;102209.19;5002015;28;20104;-78
2023/11/17 09:54:47;;;;;;;0.43;0.30;;;;;;;2.63;67.35;102203.19;4998539;28;20047;-74
2023/11/17 09:57:18;;;;;;;0.50;0.40;;;;;;;2.63;67.79;102205.78;5002552;28;20658;-74
2023/11/17 09:59:47;;;;;;;0.40;0.20;;;;;;;2.64;67.71;102202.34;5002068;28;20363;-74
2023/11/17 10:02:15;;;;;;;1.05;0.30;;;;;;;2.65;67.33;102206.72;5004630;28;20141;-78
2023/11/17 10:04:42;;;;;;;0.70;0.30;;;;;;;2.66;67.57;102205.88;5002354;28;20858;-76
2023/11/17 10:07:10;;;;;;;0.40;0.22;;;;;;;2.64;67.47;102207.50;5006719;28;20068;-75
2023/11/17 10:09:41;;;;;;;2.85;0.40;;;;;;;2.65;67.03;102201.56;5006592;28;20560;-77
2023/11/17 10:12:11;;;;;;;0.95;0.30;;;;;;;2.67;67.57;102200.75;5001125;28;20422;-77
2023/11/17 10:14:40;;;;;;;0.93;0.30;;;;;;;2.68;67.06;102201.66;5006853;28;20046;-74
2023/11/17 10:17:08;;;;;;;2.25;0.30;;;;;;;2.69;67.20;102200.84;5002803;28;20045;-75
2023/11/17 10:19:37;;;;;;;0.73;0.30;;;;;;;2.69;66.89;102195.66;5004909;28;20049;-75
2023/11/17 10:22:06;;;;;;;0.40;0.20;;;;;;;2.69;67.20;102203.41;5000676;28;20130;-75
2023/11/17 10:24:34;;;;;;;0.40;0.30;;;;;;;2.69;66.28;102204.28;5003974;28;20495;-78
2023/11/17 10:27:02;;;;;;;0.85;0.30;;;;;;;2.70;66.54;102207.75;5002218;28;20053;-77
2023/11/17 10:29:30;;;;;;;0.40;0.25;;;;;;;2.68;65.52;102207.69;5004744;28;20073;-75
2023/11/17 10:32:02;;;;;;;0.55;0.28;;;;;;;2.69;65.92;102206.00;5001359;28;20491;-75
2023/11/17 10:34:29;;;;;;;0.68;0.30;;;;;;;2.70;65.40;102205.16;5002877;28;20073;-75
2023/11/17 10:36:57;;;;;;;0.80;0.20;;;;;;;2.69;65.29;102208.56;5001117;28;20042;-75
2023/11/17 10:39:24;;;;;;;1.20;0.20;;;;;;;2.69;65.05;102208.56;5001816;28;20058;-75
2023/11/17 10:41:51;;;;;;;0.52;0.20;;;;;;;2.70;65.34;102207.75;5004470;28;20050;-75
2023/11/17 10:44:32;;;;;;;3.03;0.30;;;;;;;2.70;65.69;102205.16;5004957;28;20044;-75
2023/11/17 10:46:59;;;;;;;0.60;0.30;;;;;;;2.70;65.27;102205.16;5002573;28;20104;-75
2023/11/17 10:49:29;;;;;;;0.38;0.20;;;;;;;2.71;65.54;102209.50;5003401;28;20058;-75
2023/11/17 10:51:55;;;;;;;0.50;0.20;;;;;;;2.71;65.18;102206.94;4998472;28;20101;-77
2023/11/17 10:54:22;;;;;;;2.75;0.40;;;;;;;2.71;64.92;102212.09;5004939;28;20042;-78
2023/11/17 10:56:50;;;;;;;0.47;0.28;;;;;;;2.70;65.08;102212.91;5003838;28;20748;-78
2023/11/17 10:59:19;;;;;;;0.80;0.30;;;;;;;2.70;64.77;102216.38;5003094;28;20047;-77
2023/11/17 11:01:47;;;;;;;1.00;0.22;;;;;;;2.71;65.00;102212.09;5006126;28;20052;-77
2023/11/17 11:04:17;;;;;;;0.50;0.30;;;;;;;2.72;65.30;102224.16;5000931;28;20038;-78
2023/11/17 11:06:44;;;;;;;0.70;0.40;;;;;;;2.69;64.75;102218.91;5002088;28;20360;-78
2023/11/17 11:09:17;;;;;;;0.82;0.25;;;;;;;2.63;65.16;102206.66;5002564;28;20050;-78
2023/11/17 11:11:48;;;;;;;1.20;0.20;;;;;;;2.71;64.98;102222.41;5005727;28;20446;-77
2023/11/17 11:14:17;;;;;;;0.70;0.20;;;;;;;2.70;64.75;102218.97;4997571;28;20046;-77
2023/11/17 11:16:48;;;;;;;0.50;0.50;;;;;;;2.71;63.84;102219.84;5003721;28;20053;-77
2023/11/17 11:19:16;;;;;;;1.35;0.77;;;;;;;2.70;63.86;102224.13;5001555;28;20045;-77
2023/11/17 11:21:48;;;;;;;0.55;0.30;;;;;;;2.71;63.74;102222.41;5006629;28;20041;-78
2023/11/17 11:24:17;;;;;;;0.90;0.47;;;;;;;2.70;63.99;102224.13;5006387;28;20101;-75
2023/11/17 11:26:44;;;;;;;1.15;0.35;;;;;;;2.70;63.99;102216.38;5004249;28;20038;-78
2023/11/17 11:29:13;;;;;;;1.23;0.22;;;;;;;2.71;63.77;102219.84;5000746;28;20049;-78
2023/11/17 11:31:41;;;;;;;1.17;0.40;;;;;;;2.70;63.60;102231.88;5002658;28;20096;-78
2023/11/17 11:34:10;;;;;;;0.45;0.30;;;;;;;2.72;63.19;102233.63;5003492;28;20054;-78
2023/11/17 11:36:39;;;;;;;0.47;0.35;;;;;;;2.71;63.02;102225.00;5002999;28;20482;-77
2023/11/17 11:39:06;;;;;;;0.40;0.20;;;;;;;2.72;63.82;102229.31;5005036;28;20048;-77